createdAt,value
2023-05-01T00:00:52.571Z,56.62
2023-05-01T00:03:19.305Z,56.81
2023-05-01T00:05:46.338Z,57.29
2023-05-01T00:08:12.847Z,56.14
2023-05-01T00:10:39.812Z,56.88
2023-05-01T00:13:06.233Z,56.57
2023-05-01T00:15:33.710Z,57.27
2023-05-01T00:18:00.076Z,57.67
2023-05-01T00:20:28.073Z,56.68
2023-05-01T00:22:55.322Z,56.57
2023-05-01T00:25:21.710Z,56.66
2023-05-01T00:27:48.619Z,57.37
2023-05-01T00:30:15.030Z,56.15
2023-05-01T00:32:41.496Z,56.52
2023-05-01T00:35:08.184Z,57.06
2023-05-01T00:37:34.545Z,56.63
2023-05-01T00:40:00.953Z,57.70
2023-05-01T00:42:27.312Z,57.56
2023-05-01T00:44:53.594Z,56.82
2023-05-01T00:47:19.930Z,56.35
2023-05-01T00:49:47.307Z,56.07
2023-05-01T00:52:13.717Z,56.20
2023-05-01T00:54:40.654Z,56.05
2023-05-01T00:57:09.439Z,55.99
2023-05-01T00:59:35.772Z,56.00
2023-05-01T01:02:02.206Z,56.71
2023-05-01T01:04:31.417Z,57.04
2023-05-01T01:07:16.017Z,56.26
2023-05-01T01:09:58.881Z,56.83
2023-05-01T01:12:34.499Z,56.42
2023-05-01T01:15:18.701Z,56.66
2023-05-01T01:18:18.048Z,57.13
2023-05-01T01:20:55.830Z,56.93
2023-05-01T01:23:43.055Z,56.13
2023-05-01T01:26:13.794Z,57.19
2023-05-01T01:29:03.288Z,56.91
2023-05-01T01:31:39.226Z,56.13
2023-05-01T01:34:14.664Z,56.47
2023-05-01T01:36:48.918Z,55.58
2023-05-01T01:39:28.866Z,56.62
2023-05-01T01:41:58.290Z,55.20
2023-05-01T01:44:34.146Z,56.20
2023-05-01T01:47:04.801Z,55.74
2023-05-01T01:49:31.548Z,56.20
2023-05-01T01:52:01.766Z,56.23
2023-05-01T01:54:40.493Z,56.81
2023-05-01T01:57:08.344Z,56.43
2023-05-01T01:59:35.247Z,56.83
2023-05-01T02:02:03.738Z,56.49
2023-05-01T02:04:31.689Z,57.32
2023-05-01T02:06:59.631Z,57.11
2023-05-01T02:09:29.580Z,57.28
2023-05-01T02:11:56.628Z,57.30
2023-05-01T02:14:26.347Z,58.61
2023-05-01T02:16:53.747Z,58.01
2023-05-01T02:19:21.184Z,57.74
2023-05-01T02:21:49.824Z,58.34
2023-05-01T02:24:18.197Z,57.99
2023-05-01T02:26:49.767Z,58.39
2023-05-01T02:29:16.118Z,56.48
2023-05-01T02:31:42.470Z,57.77
2023-05-01T02:34:08.965Z,58.44
2023-05-01T02:36:35.240Z,57.82
2023-05-01T02:39:01.861Z,58.23
2023-05-01T02:41:28.256Z,57.32
2023-05-01T02:44:00.620Z,57.96
2023-05-01T02:46:28.029Z,57.01
2023-05-01T02:48:56.453Z,57.62
2023-05-01T02:51:24.139Z,57.71
2023-05-01T02:53:50.666Z,57.79
2023-05-01T02:56:17.081Z,57.87
2023-05-01T02:58:44.325Z,57.71
2023-05-01T03:01:11.188Z,58.46
2023-05-01T03:03:37.828Z,59.09
2023-05-01T03:06:04.890Z,58.82
2023-05-01T03:08:31.216Z,59.26
2023-05-01T03:10:57.534Z,59.37
2023-05-01T03:13:23.816Z,58.30
2023-05-01T03:15:50.098Z,58.13
2023-05-01T03:18:16.372Z,58.85
2023-05-01T03:20:52.059Z,59.38
2023-05-01T03:23:18.405Z,58.46
2023-05-01T03:25:44.668Z,59.73
2023-05-01T03:28:10.995Z,59.18
2023-05-01T03:30:37.281Z,59.26
2023-05-01T03:33:03.794Z,57.84
2023-05-01T03:35:30.158Z,58.23
2023-05-01T03:37:56.522Z,58.16
2023-05-01T03:40:23.426Z,57.54
2023-05-01T03:42:49.709Z,58.63
2023-05-01T03:45:16.052Z,57.86
2023-05-01T03:47:42.369Z,58.15
2023-05-01T03:50:09.131Z,58.92
2023-05-01T03:52:35.387Z,59.46
2023-05-01T03:55:02.031Z,57.66
2023-05-01T03:57:28.275Z,59.51
2023-05-01T03:59:55.219Z,58.88
2023-05-01T04:02:21.954Z,58.76
2023-05-01T04:04:48.326Z,59.12
2023-05-01T04:09:43.676Z,59.45
2023-05-01T04:12:09.965Z,58.57
2023-05-01T04:14:36.286Z,59.04
2023-05-01T04:17:02.685Z,59.55
2023-05-01T04:19:29.024Z,60.51
2023-05-01T04:21:55.324Z,58.67
2023-05-01T04:24:21.608Z,58.48
2023-05-01T04:26:47.885Z,58.23
2023-05-01T04:29:14.203Z,58.24
2023-05-01T04:31:41.690Z,58.52
2023-05-01T04:34:08.141Z,58.16
2023-05-01T04:36:34.435Z,57.44
2023-05-01T04:39:00.715Z,58.43
2023-05-01T04:41:27.105Z,57.59
2023-05-01T04:43:53.473Z,58.43
2023-05-01T04:46:19.802Z,59.32
2023-05-01T04:48:46.116Z,59.88
2023-05-01T04:51:12.540Z,58.68
2023-05-01T04:53:38.808Z,59.20
2023-05-01T04:56:05.641Z,59.18
2023-05-01T04:58:32.040Z,59.87
2023-05-01T05:00:58.489Z,59.72
2023-05-01T05:03:24.870Z,58.68
2023-05-01T05:05:51.262Z,59.33
2023-05-01T05:08:17.601Z,58.68
2023-05-01T05:10:43.921Z,58.19
2023-05-01T05:13:10.739Z,58.06
2023-05-01T05:15:37.073Z,58.02
2023-05-01T05:18:03.855Z,57.88
2023-05-01T05:20:30.227Z,58.53
2023-05-01T05:22:56.670Z,58.54
2023-05-01T05:25:24.227Z,59.16
2023-05-01T05:27:50.770Z,59.57
2023-05-01T05:30:17.107Z,58.48
2023-05-01T05:32:44.335Z,58.20
2023-05-01T05:35:10.742Z,59.14
2023-05-01T05:37:37.053Z,58.35
2023-05-01T05:40:03.990Z,59.46
2023-05-01T05:42:31.119Z,58.35
2023-05-01T05:44:57.396Z,59.62
2023-05-01T05:47:23.720Z,58.43
2023-05-01T05:49:50.033Z,58.34
2023-05-01T05:52:16.787Z,59.54
2023-05-01T05:54:43.394Z,59.34
2023-05-01T05:57:09.718Z,59.86
2023-05-01T05:59:36.394Z,59.18
2023-05-01T06:02:02.863Z,58.78
2023-05-01T06:04:29.376Z,59.82
2023-05-01T06:06:56.104Z,58.36
2023-05-01T06:09:22.469Z,58.90
2023-05-01T06:11:48.846Z,58.80
2023-05-01T06:14:16.624Z,58.63
2023-05-01T06:16:42.964Z,57.68
2023-05-01T06:19:12.071Z,57.41
2023-05-01T06:21:38.423Z,58.60
2023-05-01T06:24:04.947Z,56.50
2023-05-01T06:26:31.271Z,57.18
2023-05-01T06:28:57.544Z,56.79
2023-05-01T06:31:23.826Z,56.61
2023-05-01T06:33:50.146Z,56.50
2023-05-01T06:36:16.452Z,57.26
2023-05-01T06:38:48.401Z,55.95
2023-05-01T06:41:16.146Z,56.35
2023-05-01T06:43:42.410Z,56.76
2023-05-01T06:46:08.899Z,54.58
2023-05-01T06:48:35.239Z,55.21
2023-05-01T06:51:01.545Z,54.31
2023-05-01T06:53:40.503Z,55.20
2023-05-01T06:56:07.600Z,54.86
2023-05-01T06:58:34.065Z,54.79
2023-05-01T07:01:00.502Z,53.83
2023-05-01T07:03:30.298Z,53.90
2023-05-01T07:05:57.017Z,53.54
2023-05-01T07:08:24.175Z,54.17
2023-05-01T07:10:50.689Z,52.21
2023-05-01T07:13:17.185Z,52.25
2023-05-01T07:15:43.533Z,53.54
2023-05-01T07:18:10.106Z,51.07
2023-05-01T07:20:36.410Z,50.87
2023-05-01T07:23:04.730Z,50.29
2023-05-01T07:25:32.449Z,50.62
2023-05-01T07:28:00.750Z,50.85
2023-05-01T07:30:27.567Z,50.15
2023-05-01T07:32:53.892Z,49.57
2023-05-01T07:35:20.216Z,49.93
2023-05-01T07:37:46.580Z,50.21
2023-05-01T07:40:12.875Z,50.08
2023-05-01T07:42:39.258Z,49.80
2023-05-01T07:45:06.272Z,49.80
2023-05-01T07:47:32.871Z,49.07
2023-05-01T07:49:59.342Z,48.90
2023-05-01T07:52:26.135Z,49.00
2023-05-01T07:54:52.865Z,47.68
2023-05-01T07:57:19.257Z,47.73
2023-05-01T07:59:45.685Z,48.45
2023-05-01T08:02:13.653Z,48.28
2023-05-01T08:04:41.655Z,49.40
2023-05-01T08:07:08.266Z,49.49
2023-05-01T08:09:34.572Z,49.69
2023-05-01T08:12:04.671Z,49.07
2023-05-01T08:14:31.173Z,49.09
2023-05-01T08:17:00.164Z,48.86
2023-05-01T08:19:27.834Z,49.02
2023-05-01T08:21:54.349Z,50.32
2023-05-01T08:24:20.589Z,49.85
2023-05-01T08:26:47.131Z,48.01
2023-05-01T08:29:16.123Z,48.61
2023-05-01T08:31:43.634Z,48.09
2023-05-01T08:34:10.011Z,48.46
2023-05-01T08:36:36.444Z,46.47
2023-05-01T08:39:03.691Z,47.84
2023-05-01T08:41:31.192Z,47.29
2023-05-01T08:44:04.194Z,47.93
2023-05-01T08:46:49.543Z,46.96
2023-05-01T08:49:16.858Z,46.88
2023-05-01T08:51:50.042Z,45.71
2023-05-01T08:54:17.626Z,45.32
2023-05-01T08:56:47.822Z,44.04
2023-05-01T08:59:15.052Z,45.23
2023-05-01T09:01:43.116Z,44.97
2023-05-01T09:04:11.181Z,45.36
2023-05-01T09:06:37.972Z,44.72
2023-05-01T09:09:04.504Z,43.12
2023-05-01T09:11:30.855Z,44.87
2023-05-01T09:13:57.476Z,44.24
2023-05-01T09:16:23.908Z,44.27
2023-05-01T09:18:50.269Z,43.62
2023-05-01T09:21:16.685Z,44.21
2023-05-01T09:23:45.232Z,42.49
2023-05-01T09:26:11.907Z,42.63
2023-05-01T09:28:58.969Z,41.37
2023-05-01T09:31:35.054Z,42.43
2023-05-01T09:34:06.160Z,42.19
2023-05-01T09:36:37.403Z,43.10
2023-05-01T09:39:07.017Z,42.43
2023-05-01T09:41:35.637Z,42.98
2023-05-01T09:44:01.997Z,42.85
2023-05-01T09:46:29.852Z,42.82
2023-05-01T09:48:58.744Z,42.67
2023-05-01T09:51:29.074Z,43.75
2023-05-01T09:54:05.221Z,43.04
2023-05-01T09:56:33.782Z,42.62
2023-05-01T09:59:15.798Z,43.22
2023-05-01T10:01:48.514Z,42.75
2023-05-01T10:04:14.998Z,42.97
2023-05-01T10:06:41.565Z,39.82
2023-05-01T10:09:16.509Z,41.24
2023-05-01T10:11:57.564Z,37.51
2023-05-01T10:14:25.574Z,39.56
2023-05-01T10:16:53.080Z,37.92
2023-05-01T10:19:20.317Z,39.47
2023-05-01T10:21:47.028Z,38.16
2023-05-01T10:24:15.103Z,38.16
2023-05-01T10:26:42.916Z,37.09
2023-05-01T10:29:09.305Z,36.98
2023-05-01T10:31:35.794Z,37.75
2023-05-01T10:34:02.587Z,35.65
2023-05-01T10:36:37.452Z,37.56
2023-05-01T10:39:05.502Z,36.90
2023-05-01T10:42:05.868Z,37.10
2023-05-01T10:44:37.560Z,36.47
2023-05-01T10:47:37.723Z,37.86
2023-05-01T10:50:12.214Z,38.71
2023-05-01T10:53:17.599Z,38.55
2023-05-01T10:55:49.106Z,38.22
2023-05-01T10:58:55.949Z,38.34
2023-05-01T11:01:39.739Z,36.75
2023-05-01T11:04:27.477Z,37.32
2023-05-01T11:07:07.411Z,35.13
2023-05-01T11:09:57.425Z,36.33
2023-05-01T11:12:45.850Z,35.19
2023-05-01T11:15:13.562Z,36.15
2023-05-01T11:17:40.122Z,37.33
2023-05-01T11:20:10.429Z,35.81
2023-05-01T11:22:41.085Z,36.29
2023-05-01T11:25:22.097Z,36.22
2023-05-01T11:28:03.714Z,35.65
2023-05-01T11:30:42.231Z,36.18
2023-05-01T11:33:10.479Z,34.84
2023-05-01T11:35:37.501Z,36.23
2023-05-01T11:38:06.372Z,35.51
2023-05-01T11:40:34.770Z,35.56
2023-05-01T11:43:08.922Z,36.30
2023-05-01T11:45:36.914Z,34.94
2023-05-01T11:48:04.410Z,35.57
2023-05-01T11:50:36.583Z,36.16
2023-05-01T11:53:15.530Z,36.50
2023-05-01T11:55:42.003Z,36.55
2023-05-01T11:58:11.638Z,35.34
2023-05-01T12:00:41.602Z,35.96
2023-05-01T12:03:10.291Z,36.75
2023-05-01T12:05:49.564Z,36.00
2023-05-01T12:08:20.578Z,36.24
2023-05-01T12:10:49.231Z,37.04
2023-05-01T12:13:16.811Z,36.88
2023-05-01T12:15:46.845Z,37.56
2023-05-01T12:18:15.184Z,37.62
2023-05-01T12:20:44.469Z,37.87
2023-05-01T12:23:12.668Z,38.39
2023-05-01T12:25:43.293Z,39.18
2023-05-01T12:28:11.243Z,38.45
2023-05-01T12:30:38.364Z,39.07
2023-05-01T12:33:10.471Z,39.89
2023-05-01T12:35:37.688Z,39.24
2023-05-01T12:38:20.618Z,39.28
2023-05-01T12:40:54.476Z,39.31
2023-05-01T12:43:22.362Z,39.67
2023-05-01T12:45:53.455Z,40.79
2023-05-01T12:48:21.864Z,40.24
2023-05-01T12:50:56.533Z,40.70
2023-05-01T12:53:30.494Z,42.03
2023-05-01T12:55:58.690Z,42.72
2023-05-01T12:58:38.497Z,42.96
2023-05-01T13:01:09.010Z,42.36
2023-05-01T13:03:38.513Z,42.04
2023-05-01T13:06:06.716Z,41.93
2023-05-01T13:08:39.804Z,42.15
2023-05-01T13:11:17.378Z,42.18
2023-05-01T13:13:48.839Z,41.79
2023-05-01T13:16:20.282Z,41.91
2023-05-01T13:18:51.534Z,42.97
2023-05-01T13:21:21.396Z,43.09
2023-05-01T13:23:55.917Z,43.41
2023-05-01T13:26:33.037Z,43.40
2023-05-01T13:29:01.925Z,42.97
2023-05-01T13:31:29.156Z,43.01
2023-05-01T13:34:00.198Z,42.82
2023-05-01T13:36:33.762Z,42.33
2023-05-01T13:39:00.265Z,41.61
2023-05-01T13:41:27.406Z,39.89
2023-05-01T13:43:58.836Z,39.85
2023-05-01T13:46:27.542Z,41.29
2023-05-01T13:48:56.210Z,40.19
2023-05-01T13:51:24.411Z,41.34
2023-05-01T13:53:53.322Z,40.04
2023-05-01T13:56:22.994Z,38.99
2023-05-01T13:58:52.243Z,39.05
2023-05-01T14:01:21.021Z,38.40
2023-05-01T14:03:49.434Z,37.53
2023-05-01T14:06:18.422Z,37.18
2023-05-01T14:08:46.782Z,36.67
2023-05-01T14:11:14.304Z,35.05
2023-05-01T14:13:41.911Z,35.16
2023-05-01T14:16:12.973Z,36.25
2023-05-01T14:18:46.510Z,35.80
2023-05-01T14:21:22.655Z,36.92
2023-05-01T14:23:48.990Z,37.62
2023-05-01T14:26:45.501Z,34.64
2023-05-01T14:29:26.792Z,35.31
2023-05-01T14:31:54.594Z,35.30
2023-05-01T14:34:22.479Z,34.05
2023-05-01T14:36:48.778Z,34.39
2023-05-01T14:39:15.783Z,31.22
2023-05-01T14:41:42.773Z,32.33
2023-05-01T14:44:15.534Z,32.42
2023-05-01T14:46:47.002Z,33.07
2023-05-01T14:49:19.317Z,33.87
2023-05-01T14:51:45.674Z,32.01
2023-05-01T14:54:12.913Z,34.67
2023-05-01T14:56:39.616Z,33.06
2023-05-01T14:59:06.020Z,33.43
2023-05-01T15:01:32.847Z,34.60
2023-05-01T15:04:01.952Z,33.26
2023-05-01T15:06:30.118Z,33.70
2023-05-01T15:08:56.541Z,33.06
2023-05-01T15:11:23.036Z,33.91
2023-05-01T15:13:50.365Z,34.09
2023-05-01T15:16:17.150Z,34.28
2023-05-01T15:18:43.540Z,34.69
2023-05-01T15:21:09.785Z,34.62
2023-05-01T15:23:37.127Z,34.75
2023-05-01T15:26:03.838Z,35.50
2023-05-01T15:28:30.370Z,35.24
2023-05-01T15:30:56.834Z,35.43
2023-05-01T15:33:23.300Z,34.88
2023-05-01T15:35:52.559Z,35.16
2023-05-01T15:38:20.496Z,35.04
2023-05-01T15:40:46.814Z,35.15
2023-05-01T15:43:13.122Z,35.01
2023-05-01T15:45:43.255Z,33.98
2023-05-01T15:48:11.117Z,33.86
2023-05-01T15:50:37.594Z,35.17
2023-05-01T15:53:03.879Z,34.45
2023-05-01T15:55:30.268Z,35.45
2023-05-01T15:57:56.936Z,33.82
2023-05-01T16:00:23.349Z,34.43
2023-05-01T16:02:50.588Z,33.83
2023-05-01T16:05:21.163Z,34.01
2023-05-01T16:07:53.969Z,34.98
2023-05-01T16:10:20.549Z,34.68
2023-05-01T16:12:47.161Z,35.38
2023-05-01T16:15:14.564Z,34.49
2023-05-01T16:17:45.591Z,33.09
2023-05-01T16:20:14.073Z,33.25
2023-05-01T16:22:41.727Z,33.35
2023-05-01T16:25:09.543Z,33.91
2023-05-01T16:27:41.041Z,35.19
2023-05-01T16:30:08.976Z,33.44
2023-05-01T16:32:35.727Z,33.39
2023-05-01T16:35:03.564Z,33.61
2023-05-01T16:37:30.003Z,33.53
2023-05-01T16:39:59.673Z,34.27
2023-05-01T16:42:26.180Z,34.22
2023-05-01T16:44:52.540Z,33.60
2023-05-01T16:47:18.994Z,34.01
2023-05-01T16:49:46.586Z,34.47
2023-05-01T16:52:15.442Z,34.74
2023-05-01T16:54:41.816Z,36.17
2023-05-01T16:57:08.147Z,35.82
2023-05-01T16:59:34.558Z,36.62
2023-05-01T17:02:00.912Z,37.84
2023-05-01T17:04:27.664Z,37.85
2023-05-01T17:06:56.022Z,39.06
2023-05-01T17:09:22.580Z,37.98
2023-05-01T17:11:48.877Z,38.17
2023-05-01T17:14:15.240Z,39.34
2023-05-01T17:16:41.494Z,39.39
2023-05-01T17:19:09.684Z,38.60
2023-05-01T17:21:36.047Z,38.75
2023-05-01T17:24:02.514Z,38.72
2023-05-01T17:26:28.894Z,39.33
2023-05-01T17:28:55.244Z,40.25
2023-05-01T17:31:22.642Z,40.28
2023-05-01T17:33:49.310Z,39.88
2023-05-01T17:36:15.691Z,39.52
2023-05-01T17:38:41.950Z,40.01
2023-05-01T17:41:08.212Z,41.11
2023-05-01T17:43:34.510Z,41.30
2023-05-01T17:46:00.833Z,41.48
2023-05-01T17:48:28.500Z,40.81
2023-05-01T17:50:55.697Z,40.99
2023-05-01T17:53:23.183Z,40.33
2023-05-01T17:55:49.512Z,41.14
2023-05-01T17:58:16.100Z,41.93
2023-05-01T18:00:42.462Z,42.12
2023-05-01T18:05:52.994Z,41.75
2023-05-01T18:08:19.274Z,42.22
2023-05-01T18:10:45.656Z,42.84
2023-05-01T18:13:12.871Z,43.47
2023-05-01T18:15:39.261Z,43.91
2023-05-01T18:18:05.603Z,44.34
2023-05-01T18:20:31.940Z,43.41
2023-05-01T18:22:58.245Z,44.71
2023-05-01T18:25:24.669Z,45.36
2023-05-01T18:27:50.973Z,45.53
2023-05-01T18:30:17.324Z,45.09
2023-05-01T18:32:47.451Z,45.98
2023-05-01T18:35:15.850Z,46.05
2023-05-01T18:37:42.768Z,45.95
2023-05-01T18:40:09.901Z,45.43
2023-05-01T18:42:36.215Z,46.49
2023-05-01T18:45:03.966Z,44.99
2023-05-01T18:47:32.267Z,45.78
2023-05-01T18:49:59.132Z,45.41
2023-05-01T18:52:25.877Z,44.65
2023-05-01T18:54:52.211Z,46.22
2023-05-01T18:57:18.506Z,45.18
2023-05-01T18:59:45.032Z,45.74
2023-05-01T19:02:11.546Z,45.96
2023-05-01T19:04:55.819Z,46.02
2023-05-01T19:07:26.617Z,46.37
2023-05-01T19:09:53.050Z,46.79
2023-05-01T19:12:19.382Z,46.73
2023-05-01T19:14:45.718Z,47.57
2023-05-01T19:17:12.016Z,49.08
2023-05-01T19:19:38.280Z,49.53
2023-05-01T19:22:04.640Z,49.61
2023-05-01T19:24:30.963Z,50.88
2023-05-01T19:26:57.276Z,51.95
2023-05-01T19:29:23.662Z,52.26
2023-05-01T19:31:53.029Z,53.46
2023-05-01T19:34:20.184Z,50.47
2023-05-01T19:36:46.470Z,49.48
2023-05-01T19:39:14.823Z,49.87
2023-05-01T19:41:41.137Z,50.43
2023-05-01T19:44:11.045Z,50.71
2023-05-01T19:46:37.333Z,51.36
2023-05-01T19:49:03.640Z,52.51
2023-05-01T19:51:30.004Z,53.65
2023-05-01T19:53:59.563Z,54.18
2023-05-01T19:56:25.891Z,54.70
2023-05-01T19:58:56.361Z,54.69
2023-05-01T20:01:22.746Z,55.55
2023-05-01T20:03:51.851Z,55.67
2023-05-01T20:06:18.153Z,56.41
2023-05-01T20:08:44.629Z,56.16
2023-05-01T20:11:11.100Z,56.44
2023-05-01T20:13:37.719Z,56.96
2023-05-01T20:16:09.365Z,57.54
2023-05-01T20:18:35.834Z,58.05
2023-05-01T20:21:04.209Z,57.38
2023-05-01T20:23:30.564Z,58.32
2023-05-01T20:25:56.874Z,58.45
2023-05-01T20:28:23.436Z,57.56
2023-05-01T20:30:50.013Z,58.27
2023-05-01T20:33:17.607Z,58.40
2023-05-01T20:35:45.137Z,58.42
2023-05-01T20:38:11.559Z,58.37
2023-05-01T20:40:40.023Z,56.21
2023-05-01T20:43:07.094Z,56.69
2023-05-01T20:45:33.551Z,56.21
2023-05-01T20:48:00.053Z,55.06
2023-05-01T20:50:27.306Z,54.65
2023-05-01T20:52:55.128Z,54.55
2023-05-01T20:55:23.175Z,54.16
2023-05-01T20:57:49.600Z,53.60
2023-05-01T21:00:16.223Z,53.41
2023-05-01T21:02:42.942Z,53.96
2023-05-01T21:05:11.273Z,53.72
2023-05-01T21:07:38.292Z,53.19
2023-05-01T21:10:10.190Z,52.91
2023-05-01T21:12:39.794Z,52.39
2023-05-01T21:15:06.606Z,52.24
2023-05-01T21:17:35.616Z,52.97
2023-05-01T21:20:05.626Z,52.88
2023-05-01T21:22:32.082Z,53.23
2023-05-01T21:24:59.831Z,52.68
2023-05-01T21:27:27.534Z,53.45
2023-05-01T21:29:59.081Z,53.94
2023-05-01T21:32:32.344Z,53.55
2023-05-01T21:35:03.599Z,53.44
2023-05-01T21:37:29.954Z,54.51
2023-05-01T21:40:00.831Z,54.05
2023-05-01T21:42:34.216Z,53.99
2023-05-01T21:45:08.338Z,54.37
2023-05-01T21:47:40.138Z,54.32
2023-05-01T21:50:07.585Z,53.97
2023-05-01T21:52:37.075Z,54.24
2023-05-01T21:55:09.200Z,55.27
2023-05-01T21:57:36.835Z,54.46
2023-05-01T22:00:05.366Z,54.33
2023-05-01T22:02:40.266Z,54.71
2023-05-01T22:05:07.640Z,54.89
2023-05-01T22:07:37.191Z,54.63
2023-05-01T22:10:03.761Z,54.69
2023-05-01T22:12:30.077Z,54.89
2023-05-01T22:14:56.403Z,55.20
2023-05-01T22:17:26.144Z,55.71
2023-05-01T22:19:53.084Z,54.87
2023-05-01T22:22:19.806Z,54.86
2023-05-01T22:24:46.203Z,54.75
2023-05-01T22:27:12.476Z,54.62
2023-05-01T22:29:38.795Z,54.52
2023-05-01T22:32:05.457Z,53.89
2023-05-01T22:34:31.777Z,54.59
2023-05-01T22:36:58.213Z,54.69
2023-05-01T22:39:24.732Z,55.55
2023-05-01T22:41:51.036Z,56.07
2023-05-01T22:44:17.312Z,56.71
2023-05-01T22:46:44.397Z,56.90
2023-05-01T22:49:10.855Z,57.07
2023-05-01T22:51:37.386Z,58.02
2023-05-01T22:54:03.954Z,58.64
2023-05-01T22:56:30.300Z,59.62
2023-05-01T22:58:56.591Z,59.92
2023-05-01T23:01:23.129Z,60.16
2023-05-01T23:03:50.381Z,60.71
2023-05-01T23:06:18.694Z,60.97
2023-05-01T23:08:45.030Z,62.04
2023-05-01T23:11:11.995Z,62.25
2023-05-01T23:13:46.081Z,61.91
2023-05-01T23:16:15.292Z,60.93
2023-05-01T23:18:42.396Z,61.03
2023-05-01T23:21:10.522Z,61.78
2023-05-01T23:23:42.824Z,61.31
2023-05-01T23:26:10.089Z,61.59
2023-05-01T23:28:43.748Z,62.44
2023-05-01T23:31:18.688Z,63.51
2023-05-01T23:33:45.077Z,64.24
2023-05-01T23:36:12.810Z,63.51
2023-05-01T23:38:40.298Z,63.61
2023-05-01T23:41:07.823Z,64.34
2023-05-01T23:43:34.911Z,64.73
2023-05-01T23:46:03.448Z,64.54
2023-05-01T23:48:30.065Z,66.32
2023-05-01T23:50:56.407Z,64.89
2023-05-01T23:53:22.832Z,63.25
2023-05-01T23:55:49.172Z,61.10
2023-05-01T23:58:15.505Z,61.20
